sensor_id;sensor_type;location;lat;lon;timestamp;P1;durP1;ratioP1;P2;durP2;ratioP2
21046;SDS011;10682;50.874;3.656;2023-10-08T00:01:16;8.77;;;2.97;;
21046;SDS011;10682;50.874;3.656;2023-10-08T00:03:44;8.18;;;2.90;;
21046;SDS011;10682;50.874;3.656;2023-10-08T00:06:20;8.13;;;3.17;;
21046;SDS011;10682;50.874;3.656;2023-10-08T00:08:48;8.80;;;3.13;;
21046;SDS011;10682;50.874;3.656;2023-10-08T00:11:17;10.20;;;3.00;;
21046;SDS011;10682;50.874;3.656;2023-10-08T00:13:45;12.73;;;3.28;;
21046;SDS011;10682;50.874;3.656;2023-10-08T00:16:15;9.40;;;3.42;;
21046;SDS011;10682;50.874;3.656;2023-10-08T00:18:44;9.05;;;2.83;;
21046;SDS011;10682;50.874;3.656;2023-10-08T00:21:19;6.55;;;2.95;;
21046;SDS011;10682;50.874;3.656;2023-10-08T00:23:55;7.85;;;2.80;;
21046;SDS011;10682;50.874;3.656;2023-10-08T00:26:25;9.68;;;3.05;;
21046;SDS011;10682;50.874;3.656;2023-10-08T00:28:59;8.82;;;3.28;;
21046;SDS011;10682;50.874;3.656;2023-10-08T00:31:43;9.23;;;3.40;;
21046;SDS011;10682;50.874;3.656;2023-10-08T00:34:20;8.27;;;3.13;;
21046;SDS011;10682;50.874;3.656;2023-10-08T00:36:47;10.65;;;3.20;;
21046;SDS011;10682;50.874;3.656;2023-10-08T00:39:15;10.23;;;3.22;;
21046;SDS011;10682;50.874;3.656;2023-10-08T00:41:53;12.10;;;3.45;;
21046;SDS011;10682;50.874;3.656;2023-10-08T00:44:34;11.95;;;3.10;;
21046;SDS011;10682;50.874;3.656;2023-10-08T00:47:08;8.60;;;3.30;;
21046;SDS011;10682;50.874;3.656;2023-10-08T00:49:37;14.15;;;3.78;;
21046;SDS011;10682;50.874;3.656;2023-10-08T00:52:12;9.18;;;3.67;;
21046;SDS011;10682;50.874;3.656;2023-10-08T00:54:41;6.15;;;3.20;;
21046;SDS011;10682;50.874;3.656;2023-10-08T00:57:19;8.65;;;3.50;;
21046;SDS011;10682;50.874;3.656;2023-10-08T00:59:50;7.93;;;3.65;;
21046;SDS011;10682;50.874;3.656;2023-10-08T01:02:21;7.88;;;3.03;;
21046;SDS011;10682;50.874;3.656;2023-10-08T01:04:55;8.07;;;3.20;;
21046;SDS011;10682;50.874;3.656;2023-10-08T01:07:22;7.82;;;3.45;;
21046;SDS011;10682;50.874;3.656;2023-10-08T01:09:51;9.48;;;3.45;;
21046;SDS011;10682;50.874;3.656;2023-10-08T01:12:23;8.82;;;3.72;;
21046;SDS011;10682;50.874;3.656;2023-10-08T01:14:57;9.27;;;3.70;;
21046;SDS011;10682;50.874;3.656;2023-10-08T01:17:31;9.73;;;3.63;;
21046;SDS011;10682;50.874;3.656;2023-10-08T01:19:59;8.68;;;3.90;;
21046;SDS011;10682;50.874;3.656;2023-10-08T01:22:44;7.38;;;3.25;;
21046;SDS011;10682;50.874;3.656;2023-10-08T01:25:11;11.30;;;3.45;;
21046;SDS011;10682;50.874;3.656;2023-10-08T01:27:47;9.95;;;3.80;;
21046;SDS011;10682;50.874;3.656;2023-10-08T01:30:15;9.13;;;3.60;;
21046;SDS011;10682;50.874;3.656;2023-10-08T01:32:44;12.15;;;3.65;;
21046;SDS011;10682;50.874;3.656;2023-10-08T01:35:12;7.95;;;3.38;;
21046;SDS011;10682;50.874;3.656;2023-10-08T01:37:50;7.82;;;3.53;;
21046;SDS011;10682;50.874;3.656;2023-10-08T01:40:17;7.22;;;3.22;;
21046;SDS011;10682;50.874;3.656;2023-10-08T01:42:44;9.80;;;3.50;;
21046;SDS011;10682;50.874;3.656;2023-10-08T01:45:12;8.02;;;3.47;;
21046;SDS011;10682;50.874;3.656;2023-10-08T01:47:42;11.57;;;3.50;;
21046;SDS011;10682;50.874;3.656;2023-10-08T01:50:09;7.78;;;3.45;;
21046;SDS011;10682;50.874;3.656;2023-10-08T01:52:49;11.48;;;4.07;;
21046;SDS011;10682;50.874;3.656;2023-10-08T01:55:18;8.73;;;3.38;;
21046;SDS011;10682;50.874;3.656;2023-10-08T01:57:46;8.60;;;3.60;;
21046;SDS011;10682;50.874;3.656;2023-10-08T02:00:17;10.32;;;3.42;;
21046;SDS011;10682;50.874;3.656;2023-10-08T02:02:51;12.27;;;3.65;;
21046;SDS011;10682;50.874;3.656;2023-10-08T02:05:20;12.02;;;3.50;;
21046;SDS011;10682;50.874;3.656;2023-10-08T02:07:48;8.65;;;4.05;;
21046;SDS011;10682;50.874;3.656;2023-10-08T02:10:29;11.68;;;3.70;;
21046;SDS011;10682;50.874;3.656;2023-10-08T02:13:01;10.63;;;3.60;;
21046;SDS011;10682;50.874;3.656;2023-10-08T02:15:28;7.55;;;3.60;;
21046;SDS011;10682;50.874;3.656;2023-10-08T02:17:57;10.23;;;3.95;;
21046;SDS011;10682;50.874;3.656;2023-10-08T02:20:26;11.48;;;3.47;;
21046;SDS011;10682;50.874;3.656;2023-10-08T02:22:54;9.70;;;3.53;;
21046;SDS011;10682;50.874;3.656;2023-10-08T02:25:21;9.40;;;3.60;;
21046;SDS011;10682;50.874;3.656;2023-10-08T02:27:50;6.43;;;3.50;;
21046;SDS011;10682;50.874;3.656;2023-10-08T02:30:17;7.32;;;3.67;;
21046;SDS011;10682;50.874;3.656;2023-10-08T02:32:48;7.75;;;3.22;;
21046;SDS011;10682;50.874;3.656;2023-10-08T02:35:16;8.70;;;3.15;;
21046;SDS011;10682;50.874;3.656;2023-10-08T02:37:43;9.05;;;3.67;;
21046;SDS011;10682;50.874;3.656;2023-10-08T02:40:12;10.57;;;3.60;;
21046;SDS011;10682;50.874;3.656;2023-10-08T02:42:59;10.18;;;3.75;;
21046;SDS011;10682;50.874;3.656;2023-10-08T02:45:27;11.38;;;4.28;;
21046;SDS011;10682;50.874;3.656;2023-10-08T02:47:57;9.43;;;3.47;;
21046;SDS011;10682;50.874;3.656;2023-10-08T02:50:25;7.50;;;4.00;;
21046;SDS011;10682;50.874;3.656;2023-10-08T02:52:54;9.15;;;3.70;;
21046;SDS011;10682;50.874;3.656;2023-10-08T02:55:29;11.68;;;3.97;;
21046;SDS011;10682;50.874;3.656;2023-10-08T02:58:02;8.27;;;3.88;;
21046;SDS011;10682;50.874;3.656;2023-10-08T03:00:30;12.75;;;4.43;;
21046;SDS011;10682;50.874;3.656;2023-10-08T03:03:01;11.60;;;4.63;;
21046;SDS011;10682;50.874;3.656;2023-10-08T03:05:36;7.43;;;3.83;;
21046;SDS011;10682;50.874;3.656;2023-10-08T03:08:03;10.20;;;4.03;;
21046;SDS011;10682;50.874;3.656;2023-10-08T03:10:50;7.28;;;3.53;;
21046;SDS011;10682;50.874;3.656;2023-10-08T03:13:23;9.23;;;3.88;;
21046;SDS011;10682;50.874;3.656;2023-10-08T03:15:52;9.90;;;3.92;;
21046;SDS011;10682;50.874;3.656;2023-10-08T03:18:26;10.23;;;4.28;;
21046;SDS011;10682;50.874;3.656;2023-10-08T03:21:04;10.95;;;4.10;;
21046;SDS011;10682;50.874;3.656;2023-10-08T03:23:51;10.63;;;4.03;;
21046;SDS011;10682;50.874;3.656;2023-10-08T03:26:25;10.57;;;4.38;;
21046;SDS011;10682;50.874;3.656;2023-10-08T03:29:03;7.20;;;3.78;;
21046;SDS011;10682;50.874;3.656;2023-10-08T03:31:42;11.20;;;4.18;;
21046;SDS011;10682;50.874;3.656;2023-10-08T03:34:17;10.02;;;4.07;;
21046;SDS011;10682;50.874;3.656;2023-10-08T03:36:48;10.68;;;4.45;;
21046;SDS011;10682;50.874;3.656;2023-10-08T03:39:24;13.40;;;4.97;;
21046;SDS011;10682;50.874;3.656;2023-10-08T03:42:18;14.00;;;4.68;;
21046;SDS011;10682;50.874;3.656;2023-10-08T03:44:50;10.60;;;4.30;;
21046;SDS011;10682;50.874;3.656;2023-10-08T03:47:20;10.70;;;4.10;;
21046;SDS011;10682;50.874;3.656;2023-10-08T03:49:56;8.20;;;4.18;;
21046;SDS011;10682;50.874;3.656;2023-10-08T03:52:23;8.93;;;4.50;;
21046;SDS011;10682;50.874;3.656;2023-10-08T03:54:51;9.85;;;4.22;;
21046;SDS011;10682;50.874;3.656;2023-10-08T03:57:39;7.78;;;4.25;;
21046;SDS011;10682;50.874;3.656;2023-10-08T04:00:10;10.57;;;4.35;;
21046;SDS011;10682;50.874;3.656;2023-10-08T04:02:42;9.63;;;4.47;;
21046;SDS011;10682;50.874;3.656;2023-10-08T04:05:13;10.65;;;4.53;;
21046;SDS011;10682;50.874;3.656;2023-10-08T04:07:47;16.33;;;5.20;;
21046;SDS011;10682;50.874;3.656;2023-10-08T04:10:37;8.57;;;4.07;;
21046;SDS011;10682;50.874;3.656;2023-10-08T04:13:07;16.52;;;5.32;;
21046;SDS011;10682;50.874;3.656;2023-10-08T04:15:35;11.45;;;4.65;;
21046;SDS011;10682;50.874;3.656;2023-10-08T04:18:09;9.60;;;4.60;;
21046;SDS011;10682;50.874;3.656;2023-10-08T04:20:38;9.43;;;3.97;;
21046;SDS011;10682;50.874;3.656;2023-10-08T04:23:27;10.50;;;4.23;;
21046;SDS011;10682;50.874;3.656;2023-10-08T04:25:56;9.75;;;4.70;;
21046;SDS011;10682;50.874;3.656;2023-10-08T04:28:24;8.60;;;4.10;;
21046;SDS011;10682;50.874;3.656;2023-10-08T04:30:56;10.85;;;3.97;;
21046;SDS011;10682;50.874;3.656;2023-10-08T04:33:28;12.90;;;4.60;;
21046;SDS011;10682;50.874;3.656;2023-10-08T04:36:03;9.20;;;4.13;;
21046;SDS011;10682;50.874;3.656;2023-10-08T04:38:33;11.98;;;4.40;;
21046;SDS011;10682;50.874;3.656;2023-10-08T04:41:06;9.75;;;4.22;;
21046;SDS011;10682;50.874;3.656;2023-10-08T04:43:39;11.55;;;4.43;;
21046;SDS011;10682;50.874;3.656;2023-10-08T04:46:09;13.90;;;4.57;;
21046;SDS011;10682;50.874;3.656;2023-10-08T04:49:00;8.70;;;4.30;;
21046;SDS011;10682;50.874;3.656;2023-10-08T04:51:33;13.93;;;4.97;;
21046;SDS011;10682;50.874;3.656;2023-10-08T04:54:10;14.05;;;4.53;;
21046;SDS011;10682;50.874;3.656;2023-10-08T04:56:50;10.63;;;5.10;;
21046;SDS011;10682;50.874;3.656;2023-10-08T04:59:25;10.70;;;4.28;;
21046;SDS011;10682;50.874;3.656;2023-10-08T05:02:03;8.57;;;4.45;;
21046;SDS011;10682;50.874;3.656;2023-10-08T05:04:40;9.23;;;3.90;;
21046;SDS011;10682;50.874;3.656;2023-10-08T05:07:20;11.93;;;4.55;;
21046;SDS011;10682;50.874;3.656;2023-10-08T05:10:10;11.55;;;4.10;;
21046;SDS011;10682;50.874;3.656;2023-10-08T05:12:53;11.32;;;4.43;;
21046;SDS011;10682;50.874;3.656;2023-10-08T05:15:34;9.23;;;4.50;;
21046;SDS011;10682;50.874;3.656;2023-10-08T05:18:32;11.05;;;4.55;;
21046;SDS011;10682;50.874;3.656;2023-10-08T05:21:23;11.60;;;4.60;;
21046;SDS011;10682;50.874;3.656;2023-10-08T05:26:54;10.95;;;5.00;;
21046;SDS011;10682;50.874;3.656;2023-10-08T05:30:15;11.43;;;4.40;;
21046;SDS011;10682;50.874;3.656;2023-10-08T05:33:52;10.07;;;4.05;;
21046;SDS011;10682;50.874;3.656;2023-10-08T05:37:31;9.23;;;3.92;;
21046;SDS011;10682;50.874;3.656;2023-10-08T05:40:08;8.27;;;3.78;;
21046;SDS011;10682;50.874;3.656;2023-10-08T05:42:54;8.35;;;4.03;;
21046;SDS011;10682;50.874;3.656;2023-10-08T05:45:29;8.65;;;4.30;;
21046;SDS011;10682;50.874;3.656;2023-10-08T05:48:01;7.05;;;3.58;;
21046;SDS011;10682;50.874;3.656;2023-10-08T05:50:42;10.18;;;4.28;;
21046;SDS011;10682;50.874;3.656;2023-10-08T05:53:23;10.73;;;4.00;;
21046;SDS011;10682;50.874;3.656;2023-10-08T05:56:10;9.98;;;4.60;;
21046;SDS011;10682;50.874;3.656;2023-10-08T05:58:55;9.95;;;3.90;;
21046;SDS011;10682;50.874;3.656;2023-10-08T06:01:45;8.95;;;3.92;;
21046;SDS011;10682;50.874;3.656;2023-10-08T06:04:13;13.10;;;5.07;;
21046;SDS011;10682;50.874;3.656;2023-10-08T06:06:58;18.38;;;4.82;;
21046;SDS011;10682;50.874;3.656;2023-10-08T06:09:39;9.50;;;4.50;;
21046;SDS011;10682;50.874;3.656;2023-10-08T06:12:06;10.77;;;4.40;;
21046;SDS011;10682;50.874;3.656;2023-10-08T06:14:37;10.10;;;4.22;;
21046;SDS011;10682;50.874;3.656;2023-10-08T06:17:34;9.60;;;4.47;;
21046;SDS011;10682;50.874;3.656;2023-10-08T06:20:24;13.95;;;5.15;;
21046;SDS011;10682;50.874;3.656;2023-10-08T06:31:25;15.50;;;4.78;;
21046;SDS011;10682;50.874;3.656;2023-10-08T08:21:16;14.52;;;5.90;;
21046;SDS011;10682;50.874;3.656;2023-10-08T08:41:38;20.10;;;5.63;;
21046;SDS011;10682;50.874;3.656;2023-10-08T09:25:30;15.68;;;6.20;;
21046;SDS011;10682;50.874;3.656;2023-10-08T09:35:11;18.30;;;6.30;;
21046;SDS011;10682;50.874;3.656;2023-10-08T09:42:22;18.85;;;5.75;;
21046;SDS011;10682;50.874;3.656;2023-10-08T09:46:21;23.80;;;6.28;;
21046;SDS011;10682;50.874;3.656;2023-10-08T10:12:08;12.85;;;6.07;;
21046;SDS011;10682;50.874;3.656;2023-10-08T10:20:56;18.17;;;5.90;;
21046;SDS011;10682;50.874;3.656;2023-10-08T10:23:40;15.95;;;5.78;;
21046;SDS011;10682;50.874;3.656;2023-10-08T10:30:21;17.92;;;5.93;;
21046;SDS011;10682;50.874;3.656;2023-10-08T10:32:54;18.10;;;5.97;;
21046;SDS011;10682;50.874;3.656;2023-10-08T10:38:32;15.85;;;5.72;;
21046;SDS011;10682;50.874;3.656;2023-10-08T10:45:51;14.23;;;5.68;;
21046;SDS011;10682;50.874;3.656;2023-10-08T10:48:35;16.23;;;6.00;;
21046;SDS011;10682;50.874;3.656;2023-10-08T10:54:15;12.02;;;5.90;;
21046;SDS011;10682;50.874;3.656;2023-10-08T10:56:50;24.63;;;6.78;;
21046;SDS011;10682;50.874;3.656;2023-10-08T10:59:32;14.60;;;5.78;;
21046;SDS011;10682;50.874;3.656;2023-10-08T11:02:11;18.42;;;6.13;;
21046;SDS011;10682;50.874;3.656;2023-10-08T11:09:02;18.88;;;6.22;;
21046;SDS011;10682;50.874;3.656;2023-10-08T11:11:42;19.77;;;6.00;;
21046;SDS011;10682;50.874;3.656;2023-10-08T11:14:20;17.30;;;6.25;;
21046;SDS011;10682;50.874;3.656;2023-10-08T11:16:49;14.13;;;5.97;;
21046;SDS011;10682;50.874;3.656;2023-10-08T11:19:19;18.58;;;6.32;;
21046;SDS011;10682;50.874;3.656;2023-10-08T11:25:57;18.75;;;5.55;;
21046;SDS011;10682;50.874;3.656;2023-10-08T11:28:33;15.98;;;5.88;;
21046;SDS011;10682;50.874;3.656;2023-10-08T11:31:11;13.63;;;6.00;;
21046;SDS011;10682;50.874;3.656;2023-10-08T11:33:42;15.60;;;5.90;;
21046;SDS011;10682;50.874;3.656;2023-10-08T11:36:27;21.27;;;6.05;;
21046;SDS011;10682;50.874;3.656;2023-10-08T11:42:02;16.90;;;6.45;;
21046;SDS011;10682;50.874;3.656;2023-10-08T11:45:07;14.60;;;5.95;;
21046;SDS011;10682;50.874;3.656;2023-10-08T11:48:05;14.30;;;6.25;;
21046;SDS011;10682;50.874;3.656;2023-10-08T11:50:40;29.40;;;8.35;;
21046;SDS011;10682;50.874;3.656;2023-10-08T11:53:07;19.25;;;6.32;;
21046;SDS011;10682;50.874;3.656;2023-10-08T11:55:37;15.07;;;6.55;;
21046;SDS011;10682;50.874;3.656;2023-10-08T11:58:05;21.13;;;6.90;;
21046;SDS011;10682;50.874;3.656;2023-10-08T12:00:43;18.27;;;6.80;;
21046;SDS011;10682;50.874;3.656;2023-10-08T12:03:14;49.25;;;13.82;;
21046;SDS011;10682;50.874;3.656;2023-10-08T12:05:49;14.52;;;6.10;;
21046;SDS011;10682;50.874;3.656;2023-10-08T12:08:27;13.93;;;5.50;;
21046;SDS011;10682;50.874;3.656;2023-10-08T12:11:02;16.40;;;5.55;;
21046;SDS011;10682;50.874;3.656;2023-10-08T12:13:58;17.52;;;5.88;;
21046;SDS011;10682;50.874;3.656;2023-10-08T12:16:32;19.30;;;6.85;;
21046;SDS011;10682;50.874;3.656;2023-10-08T12:19:02;13.40;;;5.72;;
21046;SDS011;10682;50.874;3.656;2023-10-08T12:21:45;20.55;;;5.85;;
21046;SDS011;10682;50.874;3.656;2023-10-08T12:24:24;16.75;;;5.72;;
21046;SDS011;10682;50.874;3.656;2023-10-08T12:26:54;14.57;;;5.90;;
21046;SDS011;10682;50.874;3.656;2023-10-08T12:29:22;16.05;;;5.60;;
21046;SDS011;10682;50.874;3.656;2023-10-08T12:31:52;13.82;;;5.57;;
21046;SDS011;10682;50.874;3.656;2023-10-08T12:34:28;15.88;;;5.93;;
21046;SDS011;10682;50.874;3.656;2023-10-08T12:37:00;14.05;;;5.25;;
21046;SDS011;10682;50.874;3.656;2023-10-08T12:42:52;13.25;;;5.63;;
21046;SDS011;10682;50.874;3.656;2023-10-08T12:47:57;14.18;;;5.72;;
21046;SDS011;10682;50.874;3.656;2023-10-08T12:50:29;17.52;;;6.25;;
21046;SDS011;10682;50.874;3.656;2023-10-08T12:53:01;12.27;;;5.78;;
21046;SDS011;10682;50.874;3.656;2023-10-08T12:55:31;13.70;;;5.40;;
21046;SDS011;10682;50.874;3.656;2023-10-08T12:57:58;14.35;;;5.82;;
21046;SDS011;10682;50.874;3.656;2023-10-08T13:00:36;13.32;;;5.18;;
21046;SDS011;10682;50.874;3.656;2023-10-08T13:03:32;13.13;;;5.05;;
21046;SDS011;10682;50.874;3.656;2023-10-08T13:06:03;13.68;;;5.63;;
21046;SDS011;10682;50.874;3.656;2023-10-08T13:08:37;12.30;;;5.30;;
21046;SDS011;10682;50.874;3.656;2023-10-08T13:11:09;11.93;;;5.25;;
21046;SDS011;10682;50.874;3.656;2023-10-08T13:13:38;12.50;;;4.80;;
21046;SDS011;10682;50.874;3.656;2023-10-08T13:16:29;11.13;;;4.97;;
21046;SDS011;10682;50.874;3.656;2023-10-08T13:18:59;12.10;;;4.95;;
21046;SDS011;10682;50.874;3.656;2023-10-08T13:21:27;13.55;;;5.00;;
21046;SDS011;10682;50.874;3.656;2023-10-08T13:23:55;14.52;;;5.38;;
21046;SDS011;10682;50.874;3.656;2023-10-08T13:26:30;14.20;;;5.28;;
21046;SDS011;10682;50.874;3.656;2023-10-08T13:28:58;13.48;;;5.50;;
21046;SDS011;10682;50.874;3.656;2023-10-08T13:31:26;10.80;;;5.10;;
21046;SDS011;10682;50.874;3.656;2023-10-08T13:33:54;11.88;;;5.47;;
21046;SDS011;10682;50.874;3.656;2023-10-08T13:36:23;12.75;;;4.88;;
21046;SDS011;10682;50.874;3.656;2023-10-08T13:38:51;13.82;;;5.28;;
21046;SDS011;10682;50.874;3.656;2023-10-08T13:41:18;11.50;;;5.20;;
21046;SDS011;10682;50.874;3.656;2023-10-08T13:43:47;15.85;;;5.07;;
21046;SDS011;10682;50.874;3.656;2023-10-08T13:46:19;12.23;;;4.88;;
21046;SDS011;10682;50.874;3.656;2023-10-08T13:48:52;14.25;;;5.05;;
21046;SDS011;10682;50.874;3.656;2023-10-08T13:51:22;12.25;;;5.22;;
21046;SDS011;10682;50.874;3.656;2023-10-08T13:53:55;11.05;;;4.72;;
21046;SDS011;10682;50.874;3.656;2023-10-08T13:56:27;14.50;;;5.63;;
21046;SDS011;10682;50.874;3.656;2023-10-08T13:58:59;9.38;;;4.05;;
21046;SDS011;10682;50.874;3.656;2023-10-08T14:01:45;15.07;;;4.80;;
21046;SDS011;10682;50.874;3.656;2023-10-08T14:04:13;11.75;;;4.85;;
21046;SDS011;10682;50.874;3.656;2023-10-08T14:06:46;10.88;;;4.78;;
21046;SDS011;10682;50.874;3.656;2023-10-08T14:09:21;12.45;;;4.78;;
21046;SDS011;10682;50.874;3.656;2023-10-08T14:11:58;12.07;;;4.57;;
21046;SDS011;10682;50.874;3.656;2023-10-08T14:14:29;14.88;;;5.00;;
21046;SDS011;10682;50.874;3.656;2023-10-08T14:16:58;9.20;;;4.82;;
21046;SDS011;10682;50.874;3.656;2023-10-08T14:19:35;14.23;;;5.10;;
21046;SDS011;10682;50.874;3.656;2023-10-08T14:22:06;11.60;;;4.95;;
21046;SDS011;10682;50.874;3.656;2023-10-08T14:24:37;10.60;;;4.72;;
21046;SDS011;10682;50.874;3.656;2023-10-08T14:27:22;15.35;;;4.57;;
21046;SDS011;10682;50.874;3.656;2023-10-08T14:29:55;11.00;;;4.35;;
21046;SDS011;10682;50.874;3.656;2023-10-08T14:32:29;12.82;;;4.70;;
21046;SDS011;10682;50.874;3.656;2023-10-08T14:34:58;11.55;;;4.60;;
21046;SDS011;10682;50.874;3.656;2023-10-08T14:37:44;14.90;;;5.40;;
21046;SDS011;10682;50.874;3.656;2023-10-08T14:40:35;13.75;;;4.97;;
21046;SDS011;10682;50.874;3.656;2023-10-08T14:43:20;9.63;;;4.85;;
21046;SDS011;10682;50.874;3.656;2023-10-08T14:45:53;11.90;;;4.53;;
21046;SDS011;10682;50.874;3.656;2023-10-08T14:48:21;11.10;;;4.80;;
21046;SDS011;10682;50.874;3.656;2023-10-08T14:50:51;9.43;;;4.55;;
21046;SDS011;10682;50.874;3.656;2023-10-08T14:53:19;10.45;;;4.93;;
21046;SDS011;10682;50.874;3.656;2023-10-08T14:55:46;11.35;;;4.60;;
21046;SDS011;10682;50.874;3.656;2023-10-08T14:58:14;11.02;;;4.75;;
21046;SDS011;10682;50.874;3.656;2023-10-08T15:00:41;15.27;;;5.07;;
21046;SDS011;10682;50.874;3.656;2023-10-08T15:03:09;13.10;;;4.80;;
21046;SDS011;10682;50.874;3.656;2023-10-08T15:05:38;11.02;;;4.43;;
21046;SDS011;10682;50.874;3.656;2023-10-08T15:08:06;12.23;;;5.05;;
21046;SDS011;10682;50.874;3.656;2023-10-08T15:10:50;9.52;;;4.47;;
21046;SDS011;10682;50.874;3.656;2023-10-08T15:13:23;12.18;;;4.97;;
21046;SDS011;10682;50.874;3.656;2023-10-08T15:15:52;9.90;;;4.50;;
21046;SDS011;10682;50.874;3.656;2023-10-08T15:18:21;11.68;;;4.40;;
21046;SDS011;10682;50.874;3.656;2023-10-08T15:20:53;15.18;;;4.82;;
21046;SDS011;10682;50.874;3.656;2023-10-08T15:23:24;10.55;;;4.88;;
21046;SDS011;10682;50.874;3.656;2023-10-08T15:25:53;15.25;;;6.13;;
21046;SDS011;10682;50.874;3.656;2023-10-08T15:28:24;10.00;;;4.63;;
21046;SDS011;10682;50.874;3.656;2023-10-08T15:30:56;11.73;;;4.75;;
21046;SDS011;10682;50.874;3.656;2023-10-08T15:33:43;11.75;;;4.60;;
21046;SDS011;10682;50.874;3.656;2023-10-08T15:36:11;9.20;;;4.20;;
21046;SDS011;10682;50.874;3.656;2023-10-08T15:38:45;11.82;;;5.05;;
21046;SDS011;10682;50.874;3.656;2023-10-08T15:42:13;14.70;;;5.45;;
21046;SDS011;10682;50.874;3.656;2023-10-08T15:44:44;11.02;;;3.95;;
21046;SDS011;10682;50.874;3.656;2023-10-08T15:50:44;11.00;;;4.40;;
21046;SDS011;10682;50.874;3.656;2023-10-08T15:53:22;9.52;;;4.25;;
21046;SDS011;10682;50.874;3.656;2023-10-08T16:00:02;13.07;;;4.38;;
21046;SDS011;10682;50.874;3.656;2023-10-08T16:02:56;9.48;;;4.32;;
21046;SDS011;10682;50.874;3.656;2023-10-08T16:05:47;9.80;;;4.43;;
21046;SDS011;10682;50.874;3.656;2023-10-08T16:08:41;12.85;;;4.10;;
21046;SDS011;10682;50.874;3.656;2023-10-08T16:22:26;13.73;;;6.28;;
21046;SDS011;10682;50.874;3.656;2023-10-08T17:25:54;19.63;;;6.03;;
21046;SDS011;10682;50.874;3.656;2023-10-08T17:32:45;13.43;;;5.97;;
21046;SDS011;10682;50.874;3.656;2023-10-08T17:35:19;19.27;;;6.03;;
21046;SDS011;10682;50.874;3.656;2023-10-08T17:37:48;17.15;;;7.50;;
21046;SDS011;10682;50.874;3.656;2023-10-08T17:40:15;30.25;;;9.88;;
21046;SDS011;10682;50.874;3.656;2023-10-08T17:42:42;22.88;;;8.63;;
21046;SDS011;10682;50.874;3.656;2023-10-08T17:45:11;20.35;;;9.65;;
21046;SDS011;10682;50.874;3.656;2023-10-08T17:47:41;20.38;;;8.75;;
21046;SDS011;10682;50.874;3.656;2023-10-08T17:50:10;24.48;;;8.90;;
21046;SDS011;10682;50.874;3.656;2023-10-08T17:52:38;17.35;;;8.27;;
21046;SDS011;10682;50.874;3.656;2023-10-08T17:55:05;16.83;;;8.07;;
21046;SDS011;10682;50.874;3.656;2023-10-08T17:57:39;15.57;;;8.15;;
21046;SDS011;10682;50.874;3.656;2023-10-08T18:00:08;15.85;;;7.75;;
21046;SDS011;10682;50.874;3.656;2023-10-08T18:02:40;18.17;;;7.85;;
21046;SDS011;10682;50.874;3.656;2023-10-08T18:05:10;18.05;;;7.93;;
21046;SDS011;10682;50.874;3.656;2023-10-08T18:07:43;15.30;;;7.15;;
21046;SDS011;10682;50.874;3.656;2023-10-08T18:10:22;18.73;;;7.32;;
21046;SDS011;10682;50.874;3.656;2023-10-08T18:12:52;13.65;;;5.95;;
21046;SDS011;10682;50.874;3.656;2023-10-08T18:15:19;17.48;;;6.35;;
21046;SDS011;10682;50.874;3.656;2023-10-08T18:17:52;11.95;;;6.18;;
21046;SDS011;10682;50.874;3.656;2023-10-08T18:28:45;11.10;;;5.40;;
21046;SDS011;10682;50.874;3.656;2023-10-08T18:36:50;14.93;;;6.35;;
21046;SDS011;10682;50.874;3.656;2023-10-08T20:11:51;18.58;;;7.97;;
21046;SDS011;10682;50.874;3.656;2023-10-08T20:14:28;14.70;;;7.20;;
21046;SDS011;10682;50.874;3.656;2023-10-08T20:16:55;15.15;;;6.78;;
21046;SDS011;10682;50.874;3.656;2023-10-08T20:19:26;14.52;;;7.53;;
21046;SDS011;10682;50.874;3.656;2023-10-08T20:21:57;13.43;;;6.55;;
21046;SDS011;10682;50.874;3.656;2023-10-08T20:24:30;13.40;;;7.05;;
21046;SDS011;10682;50.874;3.656;2023-10-08T20:26:57;14.27;;;7.05;;
21046;SDS011;10682;50.874;3.656;2023-10-08T20:29:29;13.05;;;6.32;;
21046;SDS011;10682;50.874;3.656;2023-10-08T20:32:11;14.77;;;6.78;;
21046;SDS011;10682;50.874;3.656;2023-10-08T20:34:45;16.40;;;7.22;;
21046;SDS011;10682;50.874;3.656;2023-10-08T20:37:20;16.65;;;7.03;;
21046;SDS011;10682;50.874;3.656;2023-10-08T20:39:51;15.35;;;7.45;;
21046;SDS011;10682;50.874;3.656;2023-10-08T20:42:20;12.45;;;7.03;;
21046;SDS011;10682;50.874;3.656;2023-10-08T20:44:47;17.30;;;7.47;;
21046;SDS011;10682;50.874;3.656;2023-10-08T20:47:16;15.07;;;7.80;;
21046;SDS011;10682;50.874;3.656;2023-10-08T20:49:45;11.82;;;7.50;;
21046;SDS011;10682;50.874;3.656;2023-10-08T20:52:19;14.80;;;8.25;;
21046;SDS011;10682;50.874;3.656;2023-10-08T20:54:46;14.02;;;8.18;;
21046;SDS011;10682;50.874;3.656;2023-10-08T20:57:19;11.73;;;6.65;;
21046;SDS011;10682;50.874;3.656;2023-10-08T20:59:55;21.35;;;7.97;;
21046;SDS011;10682;50.874;3.656;2023-10-08T21:02:23;10.50;;;6.95;;
21046;SDS011;10682;50.874;3.656;2023-10-08T21:05:13;16.65;;;8.25;;
21046;SDS011;10682;50.874;3.656;2023-10-08T21:10:22;16.73;;;7.97;;
21046;SDS011;10682;50.874;3.656;2023-10-08T21:12:57;16.98;;;8.10;;
21046;SDS011;10682;50.874;3.656;2023-10-08T21:15:31;18.92;;;8.77;;
21046;SDS011;10682;50.874;3.656;2023-10-08T21:18:09;17.75;;;9.77;;
21046;SDS011;10682;50.874;3.656;2023-10-08T21:20:40;19.17;;;9.25;;
21046;SDS011;10682;50.874;3.656;2023-10-08T21:31:26;18.58;;;8.32;;
21046;SDS011;10682;50.874;3.656;2023-10-08T21:34:33;15.18;;;7.63;;
21046;SDS011;10682;50.874;3.656;2023-10-08T21:37:25;16.23;;;7.05;;
21046;SDS011;10682;50.874;3.656;2023-10-08T21:43:36;14.70;;;7.22;;
21046;SDS011;10682;50.874;3.656;2023-10-08T21:49:14;19.60;;;8.30;;
21046;SDS011;10682;50.874;3.656;2023-10-08T21:52:00;16.13;;;8.00;;
21046;SDS011;10682;50.874;3.656;2023-10-08T21:54:37;16.98;;;7.68;;
21046;SDS011;10682;50.874;3.656;2023-10-08T21:57:32;15.02;;;7.20;;
21046;SDS011;10682;50.874;3.656;2023-10-08T22:00:32;15.18;;;8.10;;
21046;SDS011;10682;50.874;3.656;2023-10-08T22:03:48;14.73;;;7.82;;
21046;SDS011;10682;50.874;3.656;2023-10-08T22:06:20;17.92;;;7.72;;
21046;SDS011;10682;50.874;3.656;2023-10-08T22:08:52;17.65;;;8.70;;
21046;SDS011;10682;50.874;3.656;2023-10-08T22:11:22;18.37;;;8.57;;
21046;SDS011;10682;50.874;3.656;2023-10-08T22:13:51;19.43;;;8.13;;
21046;SDS011;10682;50.874;3.656;2023-10-08T22:16:22;13.95;;;7.70;;
21046;SDS011;10682;50.874;3.656;2023-10-08T22:18:59;15.57;;;7.70;;
21046;SDS011;10682;50.874;3.656;2023-10-08T22:21:33;15.27;;;8.32;;
21046;SDS011;10682;50.874;3.656;2023-10-08T22:24:18;15.35;;;7.72;;
21046;SDS011;10682;50.874;3.656;2023-10-08T22:27:43;13.70;;;7.03;;
21046;SDS011;10682;50.874;3.656;2023-10-08T22:30:21;16.92;;;7.43;;
21046;SDS011;10682;50.874;3.656;2023-10-08T22:32:56;14.07;;;7.38;;
21046;SDS011;10682;50.874;3.656;2023-10-08T22:35:27;14.20;;;7.45;;
21046;SDS011;10682;50.874;3.656;2023-10-08T22:37:55;16.60;;;7.70;;
21046;SDS011;10682;50.874;3.656;2023-10-08T22:41:28;12.02;;;7.10;;
21046;SDS011;10682;50.874;3.656;2023-10-08T22:44:13;14.57;;;7.30;;
21046;SDS011;10682;50.874;3.656;2023-10-08T22:46:46;16.55;;;7.80;;
21046;SDS011;10682;50.874;3.656;2023-10-08T22:49:39;14.38;;;7.75;;
21046;SDS011;10682;50.874;3.656;2023-10-08T22:52:15;18.92;;;8.60;;
21046;SDS011;10682;50.874;3.656;2023-10-08T22:54:46;19.67;;;8.88;;
21046;SDS011;10682;50.874;3.656;2023-10-08T22:57:18;17.35;;;8.85;;
21046;SDS011;10682;50.874;3.656;2023-10-08T22:59:50;17.17;;;8.57;;
21046;SDS011;10682;50.874;3.656;2023-10-08T23:02:21;18.83;;;10.02;;
21046;SDS011;10682;50.874;3.656;2023-10-08T23:05:00;25.20;;;9.60;;
21046;SDS011;10682;50.874;3.656;2023-10-08T23:07:34;21.98;;;9.40;;